Burlington, Colorado
Current Conditions -  °F | °C
As of 2:53 AM on Saturday 25 Oct 2014 (Local Time) from KITR Reporting Station
Clear Clear  
Wind Chill: 41°   Ceiling: Unl
Heat Index: 45°   Visibility: 10mi
Dew Point: 32°   Wind: 8mph
Humidity: 60%   Direction: 260°W
Pressure: 30.14"   Gusts: NA
Location:  39.31°N, 102.27°W
Report Text: KITR 250853Z AUTO 26007KT 10SM CLR 07/00 A3014 RMK AO2 SLP164 T00720000 58003
Loading
Personal Weather Stations






























Interactive Weather Map
Tropical Storm Tracking
New forecast layout! Learn more

10-Day Weather Forecast

Advertisements
Track Severe Weather on mobile